createdAt,value
2023-02-26T00:01:15.496Z,5.67
2023-02-26T00:03:42.060Z,5.20
2023-02-26T00:06:08.649Z,5.40
2023-02-26T00:08:35.452Z,5.33
2023-02-26T00:11:01.973Z,5.03
2023-02-26T00:13:29.563Z,5.20
2023-02-26T00:16:00.241Z,4.90
2023-02-26T00:18:27.069Z,5.00
2023-02-26T00:20:53.782Z,4.53
2023-02-26T00:23:20.204Z,3.80
2023-02-26T00:25:46.889Z,4.13
2023-02-26T00:28:13.372Z,4.40
2023-02-26T00:30:40.024Z,4.00
2023-02-26T00:33:06.773Z,3.90
2023-02-26T00:35:33.573Z,4.10
2023-02-26T00:38:04.655Z,3.80
2023-02-26T00:40:43.063Z,3.57
2023-02-26T00:43:13.844Z,3.97
2023-02-26T00:45:41.900Z,3.77
2023-02-26T00:48:20.109Z,4.20
2023-02-26T00:50:56.654Z,4.40
2023-02-26T00:53:27.087Z,4.73
2023-02-26T00:55:53.396Z,4.17
2023-02-26T00:58:19.706Z,4.27
2023-02-26T01:00:46.221Z,4.23
2023-02-26T01:03:12.669Z,4.80
2023-02-26T01:05:39.099Z,4.07
2023-02-26T01:08:05.386Z,4.10
2023-02-26T01:10:32.127Z,3.70
2023-02-26T01:12:58.583Z,3.33
2023-02-26T01:15:25.003Z,3.90
2023-02-26T01:17:58.140Z,3.60
2023-02-26T01:20:26.924Z,3.67
2023-02-26T01:23:25.663Z,3.50
2023-02-26T01:25:52.002Z,3.30
2023-02-26T01:28:18.380Z,3.30
2023-02-26T01:30:46.268Z,3.33
2023-02-26T01:33:25.599Z,3.00
2023-02-26T01:35:58.266Z,3.07
2023-02-26T01:38:28.447Z,2.90
2023-02-26T01:41:04.060Z,3.30
2023-02-26T01:43:43.540Z,3.17
2023-02-26T01:46:22.125Z,2.77
2023-02-26T01:48:58.354Z,2.73
2023-02-26T01:51:42.766Z,2.83
2023-02-26T01:54:09.329Z,2.40
2023-02-26T01:56:36.344Z,2.93
2023-02-26T01:59:06.049Z,2.97
2023-02-26T02:01:32.999Z,3.30
2023-02-26T02:03:59.873Z,2.80
2023-02-26T02:06:27.883Z,2.40
2023-02-26T02:08:54.485Z,2.80
2023-02-26T02:11:20.961Z,2.60
2023-02-26T02:13:47.326Z,2.43
2023-02-26T02:16:32.258Z,3.00
2023-02-26T02:19:17.352Z,2.47
2023-02-26T02:21:55.091Z,2.30
2023-02-26T02:24:21.538Z,2.57
2023-02-26T02:26:55.916Z,2.67
2023-02-26T02:29:30.009Z,2.63
2023-02-26T02:32:05.372Z,2.50
2023-02-26T02:34:35.653Z,2.60
2023-02-26T02:37:18.008Z,2.73
2023-02-26T02:39:52.996Z,2.83
2023-02-26T02:42:22.143Z,2.43
2023-02-26T02:44:51.117Z,2.63
2023-02-26T02:47:19.517Z,2.63
2023-02-26T02:49:48.704Z,2.60
2023-02-26T02:52:17.709Z,2.40
2023-02-26T02:54:49.070Z,2.57
2023-02-26T02:57:17.869Z,2.57
2023-02-26T02:59:45.417Z,2.60
2023-02-26T03:02:28.463Z,2.43
2023-02-26T03:04:55.679Z,2.30
2023-02-26T03:07:21.989Z,2.50
2023-02-26T03:09:48.375Z,2.67
2023-02-26T03:12:14.819Z,2.57
2023-02-26T03:14:41.847Z,3.00
2023-02-26T03:17:17.454Z,2.67
2023-02-26T03:19:46.506Z,2.43
2023-02-26T03:22:23.480Z,2.43
2023-02-26T03:24:54.807Z,2.50
2023-02-26T03:27:21.137Z,2.43
2023-02-26T03:29:53.126Z,2.60
2023-02-26T03:32:24.226Z,2.23
2023-02-26T03:34:59.633Z,2.47
2023-02-26T03:37:31.044Z,2.87
2023-02-26T03:39:59.455Z,2.40
2023-02-26T03:42:41.274Z,2.57
2023-02-26T03:45:10.485Z,2.83
2023-02-26T03:47:38.992Z,2.60
2023-02-26T03:50:05.601Z,2.77
2023-02-26T03:52:34.340Z,2.70
2023-02-26T03:55:02.832Z,2.80
2023-02-26T03:57:29.261Z,3.00
2023-02-26T03:59:55.905Z,2.93
2023-02-26T04:02:42.503Z,2.60
2023-02-26T04:05:15.006Z,2.77
2023-02-26T04:07:41.550Z,3.17
2023-02-26T04:10:08.879Z,3.20
2023-02-26T04:12:35.618Z,3.10
2023-02-26T04:15:01.992Z,3.30
2023-02-26T04:17:30.300Z,2.77
2023-02-26T04:19:56.719Z,3.07
2023-02-26T04:22:23.156Z,3.53
2023-02-26T04:24:49.446Z,3.03
2023-02-26T04:27:15.798Z,3.53
2023-02-26T04:29:42.286Z,3.50
2023-02-26T04:32:08.688Z,3.30
2023-02-26T04:34:35.128Z,3.70
2023-02-26T04:37:01.472Z,3.70
2023-02-26T04:39:27.837Z,3.80
2023-02-26T04:41:54.134Z,3.80
2023-02-26T04:44:20.445Z,4.13
2023-02-26T04:46:46.766Z,3.80
2023-02-26T04:49:13.102Z,3.93
2023-02-26T04:51:39.620Z,3.80
2023-02-26T04:54:05.975Z,4.23
2023-02-26T04:56:33.456Z,4.80
2023-02-26T04:58:59.815Z,3.97
2023-02-26T05:01:26.185Z,3.83
2023-02-26T05:03:52.554Z,3.90
2023-02-26T05:06:19.854Z,4.03
2023-02-26T05:08:46.274Z,3.83
2023-02-26T05:11:13.121Z,3.83
2023-02-26T05:13:39.667Z,3.70
2023-02-26T05:16:07.164Z,4.37
2023-02-26T05:18:33.575Z,4.20
2023-02-26T05:21:00.370Z,3.67
2023-02-26T05:23:27.164Z,4.57
2023-02-26T05:25:55.090Z,4.17
2023-02-26T05:28:21.400Z,4.20
2023-02-26T05:30:47.933Z,4.47
2023-02-26T05:33:14.264Z,4.13
2023-02-26T05:35:40.672Z,4.47
2023-02-26T05:38:07.245Z,4.17
2023-02-26T05:40:33.536Z,4.33
2023-02-26T05:42:59.945Z,4.40
2023-02-26T05:45:26.361Z,4.90
2023-02-26T05:47:52.653Z,4.63
2023-02-26T05:50:19.040Z,4.50
2023-02-26T05:52:45.438Z,4.63
2023-02-26T05:55:12.102Z,4.67
2023-02-26T05:57:38.479Z,5.03
2023-02-26T06:00:06.573Z,5.77
2023-02-26T06:02:32.938Z,4.50
2023-02-26T06:04:59.236Z,5.00
2023-02-26T06:07:25.736Z,4.83
2023-02-26T06:09:52.087Z,4.87
2023-02-26T06:12:18.445Z,4.43
2023-02-26T06:14:44.878Z,4.47
2023-02-26T06:17:11.219Z,4.67
2023-02-26T06:19:37.593Z,4.30
2023-02-26T06:22:03.894Z,4.40
2023-02-26T06:24:30.281Z,4.27
2023-02-26T06:26:56.709Z,4.30
2023-02-26T06:29:23.525Z,3.93
2023-02-26T06:31:50.147Z,4.43
2023-02-26T06:34:17.895Z,4.07
2023-02-26T06:36:44.667Z,4.43
2023-02-26T06:39:12.594Z,8.13
2023-02-26T06:41:38.932Z,6.13
2023-02-26T06:44:05.482Z,20.63
2023-02-26T06:46:31.926Z,34.97
2023-02-26T06:48:58.411Z,5.87
2023-02-26T06:51:24.694Z,5.40
2023-02-26T06:53:50.985Z,5.60
2023-02-26T06:56:17.523Z,12.93
2023-02-26T06:58:43.853Z,5.37
2023-02-26T07:01:10.477Z,4.97
2023-02-26T07:03:36.886Z,5.53
2023-02-26T07:06:23.704Z,5.90
2023-02-26T07:08:49.707Z,5.90
2023-02-26T07:11:16.020Z,4.23
2023-02-26T07:13:42.314Z,4.40
2023-02-26T07:16:08.695Z,3.63
2023-02-26T07:18:35.688Z,4.70
2023-02-26T07:21:02.298Z,3.53
2023-02-26T07:23:28.895Z,3.40
2023-02-26T07:25:56.373Z,3.57
2023-02-26T07:28:24.189Z,3.70
2023-02-26T07:30:50.547Z,3.47
2023-02-26T07:33:16.952Z,3.47
2023-02-26T07:35:43.402Z,3.60
2023-02-26T07:38:09.708Z,3.70
2023-02-26T07:40:35.999Z,3.20
2023-02-26T07:43:02.380Z,3.33
2023-02-26T07:45:28.676Z,3.20
2023-02-26T07:47:55.088Z,3.07
2023-02-26T07:50:24.812Z,3.10
2023-02-26T07:52:54.169Z,3.63
2023-02-26T07:55:20.629Z,3.10
2023-02-26T07:57:47.030Z,2.83
2023-02-26T08:00:13.772Z,3.10
2023-02-26T08:02:40.211Z,3.03
2023-02-26T08:05:06.795Z,2.90
2023-02-26T08:07:33.090Z,3.27
2023-02-26T08:09:59.405Z,3.03
2023-02-26T08:12:25.723Z,4.13
2023-02-26T08:14:52.180Z,8.43
2023-02-26T08:17:18.571Z,13.93
2023-02-26T08:19:44.852Z,28.17
2023-02-26T08:22:11.164Z,16.90
2023-02-26T08:24:37.542Z,20.83
2023-02-26T08:27:03.816Z,46.17
2023-02-26T08:29:30.118Z,4.60
2023-02-26T08:31:56.804Z,3.97
2023-02-26T08:34:23.374Z,7.00
2023-02-26T08:36:50.281Z,2.97
2023-02-26T08:39:16.659Z,5.03
2023-02-26T08:41:43.289Z,2.83
2023-02-26T08:44:09.666Z,3.57
2023-02-26T08:46:36.026Z,2.60
2023-02-26T08:49:02.935Z,3.40
2023-02-26T08:51:29.569Z,5.07
2023-02-26T08:53:56.782Z,2.43
2023-02-26T08:56:23.432Z,2.47
2023-02-26T08:58:50.003Z,2.10
2023-02-26T09:01:16.360Z,2.60
2023-02-26T09:03:42.864Z,2.30
2023-02-26T09:06:09.196Z,5.63
2023-02-26T09:08:35.630Z,2.00
2023-02-26T09:11:02.476Z,43.97
2023-02-26T09:13:29.731Z,3.70
2023-02-26T09:15:56.379Z,6.23
2023-02-26T09:18:22.944Z,2.83
2023-02-26T09:20:49.310Z,1.67
2023-02-26T09:23:15.590Z,1.30
2023-02-26T09:25:42.344Z,1.80
2023-02-26T09:28:08.671Z,3.37
2023-02-26T09:30:35.268Z,2.13
2023-02-26T09:33:01.616Z,1.70
2023-02-26T09:35:28.137Z,1.53
2023-02-26T09:37:54.548Z,1.53
2023-02-26T09:40:25.754Z,1.47
2023-02-26T09:43:10.899Z,1.60
2023-02-26T09:45:38.440Z,1.63
2023-02-26T09:48:05.600Z,1.43
2023-02-26T09:50:43.799Z,1.70
2023-02-26T09:53:31.549Z,1.50
2023-02-26T09:56:04.319Z,1.43
2023-02-26T09:58:38.363Z,1.30
2023-02-26T10:01:10.910Z,1.50
2023-02-26T10:03:52.554Z,1.40
2023-02-26T10:06:19.595Z,1.27
2023-02-26T10:08:55.073Z,1.50
2023-02-26T10:11:29.193Z,1.20
2023-02-26T10:13:59.574Z,1.13
2023-02-26T10:16:32.613Z,1.30
2023-02-26T10:19:01.473Z,1.40
2023-02-26T10:21:32.730Z,1.40
2023-02-26T10:24:01.469Z,1.30
2023-02-26T10:26:34.492Z,1.10
2023-02-26T10:29:21.504Z,1.57
2023-02-26T10:31:52.274Z,1.40
2023-02-26T10:34:25.115Z,1.13
2023-02-26T10:37:08.906Z,1.00
2023-02-26T10:39:40.885Z,1.20
2023-02-26T10:42:13.196Z,1.40
2023-02-26T10:45:12.832Z,1.10
2023-02-26T10:47:57.057Z,0.90
2023-02-26T10:50:24.111Z,19.30
2023-02-26T10:52:51.176Z,12.63
2023-02-26T10:55:23.404Z,15.63
2023-02-26T10:58:05.136Z,8.07
2023-02-26T11:00:31.837Z,5.37
2023-02-26T11:02:58.356Z,5.10
2023-02-26T11:05:27.883Z,4.77
2023-02-26T11:07:56.225Z,3.53
2023-02-26T11:10:27.155Z,5.90
2023-02-26T11:12:53.918Z,2.00
2023-02-26T11:15:21.455Z,6.00
2023-02-26T11:17:48.801Z,11.10
2023-02-26T11:20:33.701Z,4.00
2023-02-26T11:23:02.216Z,2.90
2023-02-26T11:25:29.494Z,6.23
2023-02-26T11:27:59.454Z,1.73
2023-02-26T11:30:26.683Z,4.63
2023-02-26T11:32:53.738Z,2.27
2023-02-26T11:35:23.008Z,3.00
2023-02-26T11:37:50.251Z,5.93
2023-02-26T11:40:36.890Z,4.17
2023-02-26T11:43:07.750Z,4.03
2023-02-26T11:45:39.083Z,9.23
2023-02-26T11:48:12.813Z,5.37
2023-02-26T11:50:50.062Z,4.23
2023-02-26T11:53:22.837Z,3.03
2023-02-26T11:55:52.737Z,5.47
2023-02-26T11:58:23.890Z,2.13
2023-02-26T12:00:54.099Z,7.67
2023-02-26T12:03:22.177Z,1.47
2023-02-26T12:05:49.183Z,7.63
2023-02-26T12:08:38.725Z,4.43
2023-02-26T12:11:06.054Z,4.03
2023-02-26T12:13:40.398Z,4.87
2023-02-26T12:16:06.787Z,12.87
2023-02-26T12:18:39.165Z,5.17
2023-02-26T12:21:09.907Z,4.27
2023-02-26T12:23:53.742Z,7.97
2023-02-26T12:26:28.749Z,15.90
2023-02-26T12:29:02.454Z,8.80
2023-02-26T12:31:36.532Z,1.80
2023-02-26T12:34:21.851Z,1.80
2023-02-26T12:37:06.456Z,4.30
2023-02-26T12:39:48.329Z,6.43
2023-02-26T12:42:17.400Z,3.30
2023-02-26T12:44:43.668Z,2.57
2023-02-26T12:47:09.972Z,6.47
2023-02-26T12:49:48.250Z,1.50
2023-02-26T12:52:33.527Z,1.27
2023-02-26T12:55:06.209Z,1.27
2023-02-26T12:57:47.782Z,3.13
2023-02-26T13:00:23.475Z,1.60
2023-02-26T13:02:59.505Z,1.17
2023-02-26T13:05:36.722Z,1.40
2023-02-26T13:08:09.221Z,3.13
2023-02-26T13:10:35.582Z,4.53
2023-02-26T13:13:28.028Z,2.80
2023-02-26T13:16:03.309Z,1.77
2023-02-26T13:18:32.582Z,2.90
2023-02-26T13:21:01.431Z,4.57
2023-02-26T13:23:31.074Z,3.37
2023-02-26T13:25:59.546Z,1.73
2023-02-26T13:28:39.162Z,1.23
2023-02-26T13:31:11.131Z,1.27
2023-02-26T13:33:38.863Z,1.17
2023-02-26T13:36:08.172Z,1.40
2023-02-26T13:38:43.434Z,1.70
2023-02-26T13:41:16.776Z,1.10
2023-02-26T13:43:53.134Z,3.70
2023-02-26T13:46:28.731Z,1.83
2023-02-26T13:49:10.312Z,2.50
2023-02-26T13:51:40.820Z,4.40
2023-02-26T13:54:17.092Z,2.33
2023-02-26T13:56:46.498Z,4.67
2023-02-26T13:59:13.252Z,1.60
2023-02-26T14:01:55.066Z,1.83
2023-02-26T14:04:24.228Z,2.00
2023-02-26T14:06:53.611Z,1.30
2023-02-26T14:09:22.724Z,2.60
2023-02-26T14:11:54.973Z,2.00
2023-02-26T14:14:21.269Z,1.83
2023-02-26T14:17:02.920Z,1.20
2023-02-26T14:19:32.171Z,1.70
2023-02-26T14:22:13.710Z,1.10
2023-02-26T14:24:44.907Z,1.33
2023-02-26T14:27:11.169Z,1.17
2023-02-26T14:29:39.564Z,1.80
2023-02-26T14:32:13.169Z,1.80
2023-02-26T14:34:53.181Z,1.00
2023-02-26T14:37:23.140Z,0.83
2023-02-26T14:39:54.322Z,1.43
2023-02-26T14:42:30.509Z,0.80
2023-02-26T14:45:08.783Z,1.30
2023-02-26T14:47:36.207Z,1.27
2023-02-26T14:50:03.197Z,1.00
2023-02-26T14:52:32.686Z,1.20
2023-02-26T14:55:09.352Z,1.20
2023-02-26T14:58:01.822Z,1.00
2023-02-26T15:00:30.316Z,1.03
2023-02-26T15:03:08.856Z,1.20
2023-02-26T15:05:44.736Z,1.03
2023-02-26T15:08:34.346Z,1.00
2023-02-26T15:11:06.544Z,1.00
2023-02-26T15:13:42.260Z,1.07
2023-02-26T15:16:41.079Z,0.97
2023-02-26T15:19:15.482Z,0.70
2023-02-26T15:21:42.061Z,1.10
2023-02-26T15:24:11.041Z,1.10
2023-02-26T15:26:40.297Z,1.00
2023-02-26T15:29:10.031Z,1.10
2023-02-26T15:31:56.419Z,1.20
2023-02-26T15:34:23.628Z,1.13
2023-02-26T15:36:53.233Z,1.10
2023-02-26T15:39:20.698Z,1.00
2023-02-26T15:41:47.982Z,1.00
2023-02-26T15:44:17.558Z,1.00
2023-02-26T15:46:45.669Z,1.00
2023-02-26T15:49:15.654Z,1.00
2023-02-26T15:51:42.878Z,1.10
2023-02-26T15:54:13.414Z,1.10
2023-02-26T15:56:41.227Z,1.03
2023-02-26T15:59:11.061Z,1.10
2023-02-26T16:01:39.605Z,1.17
2023-02-26T16:04:11.957Z,2.00
2023-02-26T16:06:40.378Z,1.40
2023-02-26T16:09:07.474Z,3.40
2023-02-26T16:11:38.960Z,4.63
2023-02-26T16:14:06.822Z,1.33
2023-02-26T16:16:41.061Z,3.03
2023-02-26T16:19:09.236Z,1.60
2023-02-26T16:21:36.484Z,4.20
2023-02-26T16:24:05.095Z,1.17
2023-02-26T16:26:37.631Z,2.67
2023-02-26T16:29:14.400Z,2.47
2023-02-26T16:31:41.535Z,2.17
2023-02-26T16:34:22.439Z,1.83
2023-02-26T16:36:49.275Z,1.40
2023-02-26T16:39:19.553Z,1.20
2023-02-26T16:41:47.825Z,1.20
2023-02-26T16:44:34.466Z,2.17
2023-02-26T16:47:01.718Z,5.33
2023-02-26T16:49:35.947Z,4.93
2023-02-26T16:52:02.433Z,1.27
2023-02-26T16:54:42.193Z,8.53
2023-02-26T16:57:11.243Z,2.23
2023-02-26T16:59:38.635Z,8.63
2023-02-26T17:02:13.399Z,1.33
2023-02-26T17:04:40.378Z,2.30
2023-02-26T17:07:36.344Z,4.10
2023-02-26T17:10:38.564Z,5.07
2023-02-26T17:13:23.444Z,1.93
2023-02-26T17:15:51.097Z,3.33
2023-02-26T17:18:17.904Z,3.13
2023-02-26T17:20:44.637Z,1.50
2023-02-26T17:23:13.399Z,3.60
2023-02-26T17:25:41.027Z,1.47
2023-02-26T17:28:07.983Z,2.27
2023-02-26T17:30:34.696Z,1.57
2023-02-26T17:33:01.486Z,4.77
2023-02-26T17:35:29.289Z,1.93
2023-02-26T17:37:57.055Z,1.97
2023-02-26T17:40:23.514Z,4.60
2023-02-26T17:42:50.567Z,2.67
2023-02-26T17:45:17.032Z,1.60
2023-02-26T17:47:43.479Z,1.40
2023-02-26T17:50:22.571Z,2.00
2023-02-26T17:52:48.979Z,1.40
2023-02-26T17:55:15.416Z,2.10
2023-02-26T17:57:41.720Z,1.30
2023-02-26T18:00:08.912Z,1.73
2023-02-26T18:02:35.423Z,1.60
2023-02-26T18:05:01.854Z,2.37
2023-02-26T18:07:28.161Z,1.80
2023-02-26T18:09:54.540Z,1.90
2023-02-26T18:12:21.670Z,1.90
2023-02-26T18:14:48.295Z,1.73
2023-02-26T18:17:25.347Z,2.10
2023-02-26T18:19:51.746Z,1.93
2023-02-26T18:22:19.793Z,2.17
2023-02-26T18:24:46.612Z,2.13
2023-02-26T18:27:17.835Z,2.50
2023-02-26T18:29:44.168Z,2.43
2023-02-26T18:32:14.851Z,2.30
2023-02-26T18:34:41.449Z,3.00
2023-02-26T18:37:11.222Z,6.00
2023-02-26T18:39:38.098Z,8.47
2023-02-26T18:42:05.137Z,3.30
2023-02-26T18:44:33.087Z,2.03
2023-02-26T18:46:59.851Z,2.73
2023-02-26T18:49:27.518Z,3.10
2023-02-26T18:51:54.608Z,3.70
2023-02-26T18:54:20.960Z,3.63
2023-02-26T18:56:47.336Z,3.77
2023-02-26T18:59:13.654Z,3.70
2023-02-26T19:01:40.333Z,5.17
2023-02-26T19:04:07.905Z,6.10
2023-02-26T19:06:34.303Z,5.47
2023-02-26T19:09:02.716Z,4.77
2023-02-26T19:11:29.351Z,5.20
2023-02-26T19:13:55.723Z,4.33
2023-02-26T19:16:23.090Z,4.67
2023-02-26T19:18:50.120Z,6.13
2023-02-26T19:21:16.488Z,6.63
2023-02-26T19:23:42.963Z,6.53
2023-02-26T19:26:09.249Z,7.90
2023-02-26T19:28:35.576Z,8.57
2023-02-26T19:31:02.028Z,7.93
2023-02-26T19:33:29.801Z,7.63
2023-02-26T19:35:56.167Z,6.63
2023-02-26T19:38:23.603Z,8.27
2023-02-26T19:40:51.117Z,6.37
2023-02-26T19:43:17.515Z,6.80
2023-02-26T19:45:43.814Z,7.10
2023-02-26T19:48:10.110Z,6.60
2023-02-26T19:50:36.640Z,6.53
2023-02-26T19:53:03.770Z,5.97
2023-02-26T19:55:30.155Z,8.00
2023-02-26T19:57:56.456Z,5.50
2023-02-26T20:00:23.365Z,6.53
2023-02-26T20:02:50.130Z,6.30
2023-02-26T20:05:18.082Z,8.50
2023-02-26T20:07:45.251Z,5.40
2023-02-26T20:10:12.520Z,5.50
2023-02-26T20:12:38.934Z,5.60
2023-02-26T20:15:05.559Z,5.70
2023-02-26T20:17:31.935Z,4.87
2023-02-26T20:19:58.305Z,4.90
2023-02-26T20:22:24.799Z,4.23
2023-02-26T20:24:52.491Z,4.87
2023-02-26T20:27:19.767Z,4.50
2023-02-26T20:29:46.543Z,4.30
2023-02-26T20:32:12.939Z,5.03
2023-02-26T20:34:39.410Z,4.57
2023-02-26T20:37:05.834Z,4.70
2023-02-26T20:39:32.179Z,4.23
2023-02-26T20:41:58.590Z,4.20
2023-02-26T20:44:24.904Z,4.23
2023-02-26T20:46:52.305Z,4.47
2023-02-26T20:49:18.919Z,4.30
2023-02-26T20:51:45.276Z,4.73
2023-02-26T20:54:14.605Z,4.50
2023-02-26T20:56:41.360Z,3.80
2023-02-26T20:59:08.048Z,3.73
2023-02-26T21:01:37.326Z,4.30
2023-02-26T21:04:05.174Z,4.07
2023-02-26T21:06:32.361Z,3.60
2023-02-26T21:08:59.075Z,3.27
2023-02-26T21:11:25.792Z,3.27
2023-02-26T21:13:52.311Z,3.10
2023-02-26T21:16:18.868Z,3.53
2023-02-26T21:18:45.259Z,2.97
2023-02-26T21:21:11.611Z,3.00
2023-02-26T21:23:37.911Z,22.57
2023-02-26T21:26:04.401Z,33.40
2023-02-26T21:28:30.774Z,37.33
2023-02-26T21:30:57.358Z,10.03
2023-02-26T21:33:24.270Z,29.30
2023-02-26T21:35:51.579Z,15.70
2023-02-26T21:38:19.091Z,20.20
2023-02-26T21:40:46.183Z,4.07
2023-02-26T21:43:12.731Z,15.43
2023-02-26T21:45:39.687Z,28.07
2023-02-26T21:48:06.368Z,23.63
2023-02-26T21:50:32.729Z,21.63
2023-02-26T21:52:59.007Z,15.90
2023-02-26T21:55:25.600Z,29.63
2023-02-26T21:57:52.096Z,27.43
2023-02-26T22:00:18.866Z,23.40
2023-02-26T22:02:45.364Z,14.37
2023-02-26T22:05:12.141Z,16.60
2023-02-26T22:07:38.837Z,16.63
2023-02-26T22:10:06.538Z,7.80
2023-02-26T22:12:33.185Z,21.83
2023-02-26T22:14:59.583Z,25.63
2023-02-26T22:17:25.918Z,11.43
2023-02-26T22:19:52.562Z,19.03
2023-02-26T22:22:18.858Z,15.77
2023-02-26T22:24:45.170Z,41.80
2023-02-26T22:27:11.626Z,30.73
2023-02-26T22:29:39.130Z,9.60
2023-02-26T22:32:07.202Z,21.67
2023-02-26T22:34:34.247Z,15.97
2023-02-26T22:37:00.899Z,5.93
2023-02-26T22:39:27.269Z,19.53
2023-02-26T22:41:53.742Z,21.90
2023-02-26T22:44:20.049Z,15.23
2023-02-26T22:46:47.370Z,14.63
2023-02-26T22:49:13.869Z,21.27
2023-02-26T22:51:40.156Z,11.50
2023-02-26T22:54:06.528Z,8.97
2023-02-26T22:56:32.835Z,7.93
2023-02-26T22:58:59.137Z,21.30
2023-02-26T23:01:26.292Z,5.37
2023-02-26T23:03:52.710Z,20.90
2023-02-26T23:06:19.175Z,5.87
2023-02-26T23:08:45.488Z,23.53
2023-02-26T23:11:11.794Z,8.83
2023-02-26T23:13:38.518Z,25.80
2023-02-26T23:16:07.003Z,16.87
2023-02-26T23:18:34.155Z,15.20
2023-02-26T23:21:00.827Z,31.90
2023-02-26T23:23:27.237Z,12.50
2023-02-26T23:25:53.716Z,7.73
2023-02-26T23:28:20.593Z,7.70
2023-02-26T23:30:47.029Z,8.00
2023-02-26T23:33:13.601Z,7.27
2023-02-26T23:35:40.169Z,3.70
2023-02-26T23:38:06.594Z,9.60
2023-02-26T23:40:33.093Z,16.13
2023-02-26T23:42:59.411Z,7.63
2023-02-26T23:45:25.839Z,4.20
2023-02-26T23:47:52.161Z,3.70
2023-02-26T23:50:18.502Z,2.00
2023-02-26T23:52:44.793Z,2.33
2023-02-26T23:55:11.473Z,1.90
2023-02-26T23:57:37.866Z,1.80
